Time;durP1;ratioP1;P1;durP2;ratioP2;P2;SDS_P1;SDS_P2;PMS_P1;PMS_P2;Temp;Humidity;BMP_temperature;BMP_pressure;BME280_temperature;BME280_humidity;BME280_pressure;Samples;Min_cycle;Max_cycle;Signal;HPM_P1;HPM_P2
2021/03/11 00:00:30;;;;;;;58.75;27.83;;;;;;;-1.40;85.60;96585.56;4985307;28;20046;-77
2021/03/11 00:03:10;;;;;;;63.92;30.48;;;;;;;-1.63;85.75;96576.78;5001247;28;20054;-77
2021/03/11 00:05:38;;;;;;;69.10;33.15;;;;;;;-1.48;86.89;96588.63;4994546;28;20046;-77
2021/03/11 00:08:06;;;;;;;61.40;29.95;;;;;;;-1.44;87.05;96582.41;5004893;28;20049;-77
2021/03/11 00:10:33;;;;;;;69.07;31.13;;;;;;;-1.36;86.34;96570.88;5000995;28;20112;-76
2021/03/11 00:13:00;;;;;;;64.88;29.25;;;;;;;-1.27;86.02;96576.22;4986863;28;20046;-77
2021/03/11 00:15:26;;;;;;;54.13;28.33;;;;;;;-1.19;85.94;96574.91;4984838;28;20049;-77
2021/03/11 00:17:53;;;;;;;86.35;33.67;;;;;;;-0.98;85.32;96577.81;4989401;28;20053;-77
2021/03/11 00:20:23;;;;;;;64.07;30.60;;;;;;;-1.14;86.19;96572.88;5005283;28;20044;-78
2021/03/11 00:22:50;;;;;;;70.53;31.63;;;;;;;-1.14;85.81;96568.59;5005919;28;20121;-77
2021/03/11 00:25:18;;;;;;;62.88;29.30;;;;;;;-1.07;85.65;96554.50;4991685;28;20042;-78
2021/03/11 00:27:45;;;;;;;62.20;30.45;;;;;;;-1.23;86.58;96551.28;4989936;28;20046;-77
2021/03/11 00:30:13;;;;;;;60.38;28.92;;;;;;;-1.10;86.24;96564.94;4972620;28;20924;-77
2021/03/11 00:32:40;;;;;;;48.95;26.35;;;;;;;-1.03;85.89;96555.94;4974889;28;20052;-77
2021/03/11 00:35:08;;;;;;;44.47;25.30;;;;;;;-1.07;86.41;96556.25;5008179;28;20046;-77
2021/03/11 00:37:34;;;;;;;;;;;;;;;-1.04;86.42;96559.44;4987181;28;20378;-78
2021/03/11 00:40:01;;;;;;;54.70;27.80;;;;;;;-1.10;86.19;96538.53;4991969;28;20017;-77
2021/03/11 00:42:27;;;;;;;46.58;26.13;;;;;;;-0.93;85.34;96551.06;4987745;28;20050;-77
2021/03/11 00:44:53;;;;;;;50.60;27.20;;;;;;;-0.80;85.27;96551.06;4986259;28;20054;-78
2021/03/11 00:47:20;;;;;;;46.50;25.65;;;;;;;-0.99;85.33;96525.91;4989848;28;20341;-78
2021/03/11 00:49:47;;;;;;;53.53;27.05;;;;;;;-0.92;85.34;96534.78;4989454;28;20061;-77
2021/03/11 00:52:15;;;;;;;43.05;24.73;;;;;;;-0.84;85.22;96547.88;4995245;28;20038;-78
2021/03/11 00:54:41;;;;;;;51.78;27.25;;;;;;;-1.05;86.37;96536.53;4990538;28;20045;-79
2021/03/11 00:57:07;;;;;;;52.72;27.70;;;;;;;-1.06;85.60;96502.50;4990247;28;20513;-77
2021/03/11 00:59:40;;;;;;;58.78;29.20;;;;;;;-0.78;85.16;96527.94;4988041;28;20047;-80
2021/03/11 01:02:06;;;;;;;42.97;24.38;;;;;;;-0.86;85.25;96524.16;4976719;28;20888;-80
2021/03/11 01:04:33;;;;;;;46.65;25.67;;;;;;;-0.88;85.52;96520.09;4986669;28;20650;-79
2021/03/11 01:07:00;;;;;;;49.75;26.88;;;;;;;-0.59;84.60;96513.03;4989646;28;20137;-79
2021/03/11 01:09:26;;;;;;;44.53;24.83;;;;;;;-0.57;84.47;96523.13;5003684;28;20093;-80
2021/03/11 01:11:52;;;;;;;47.67;26.48;;;;;;;-0.59;84.25;96519.88;4976755;28;20070;-79
2021/03/11 01:14:18;;;;;;;51.50;27.50;;;;;;;-0.70;84.53;96490.75;4988765;28;20565;-78
2021/03/11 01:17:10;;;;;;;53.92;28.88;;;;;;;-0.58;84.58;96501.88;4973487;28;20402;-79
2021/03/11 01:19:37;;;;;;;47.00;26.10;;;;;;;-0.71;84.88;96486.53;4981021;28;20061;-79
2021/03/11 01:22:04;;;;;;;39.08;22.77;;;;;;;-0.62;84.77;96488.47;4989569;28;20038;-79
2021/03/11 01:24:30;;;;;;;46.53;24.38;;;;;;;-0.56;84.91;96474.47;4988181;28;20046;-79
2021/03/11 01:26:57;;;;;;;44.13;25.10;;;;;;;-0.41;84.42;96482.81;4987536;28;20073;-79
2021/03/11 01:29:24;;;;;;;33.33;19.42;;;;;;;-0.37;83.94;96480.88;4979682;28;20060;-79
2021/03/11 01:31:50;;;;;;;36.50;20.70;;;;;;;-0.26;83.54;96481.75;4976459;28;20053;-80
2021/03/11 01:34:17;;;;;;;38.50;22.65;;;;;;;-0.40;84.57;96474.25;4988297;28;20112;-80
2021/03/11 01:36:43;;;;;;;40.20;23.50;;;;;;;-0.46;84.26;96474.66;4989108;28;20056;-80
2021/03/11 01:39:09;;;;;;;39.47;22.40;;;;;;;-0.58;84.86;96472.94;4991460;28;20042;-79
2021/03/11 01:41:35;;;;;;;39.28;22.20;;;;;;;-0.49;84.44;96473.09;4985796;28;20054;-79
2021/03/11 01:44:01;;;;;;;33.65;20.58;;;;;;;-0.45;84.78;96476.28;4986580;28;20034;-77
2021/03/11 01:46:27;;;;;;;34.53;19.67;;;;;;;-0.31;83.71;96463.38;4987480;28;20046;-78
2021/03/11 01:48:54;;;;;;;38.15;22.80;;;;;;;-0.18;83.09;96465.88;4989242;28;20112;-77
2021/03/11 01:51:22;;;;;;;34.30;21.35;;;;;;;-0.42;83.95;96455.63;4990478;28;20041;-77
2021/03/11 01:53:48;;;;;;;;;;;;;;;-0.07;82.74;96465.13;5006491;28;20069;-77
2021/03/11 01:56:16;;;;;;;36.25;21.02;;;;;;;-0.57;84.73;96459.22;4990545;28;19992;-78
2021/03/11 01:58:42;;;;;;;36.15;21.35;;;;;;;-0.68;85.37;96435.22;4978802;28;20046;-79
2021/03/11 02:01:10;;;;;;;39.35;22.98;;;;;;;-0.59;84.64;96456.78;4972758;28;20041;-78
2021/03/11 02:03:36;;;;;;;39.42;22.52;;;;;;;-0.45;84.00;96440.47;4987395;28;20398;-78
2021/03/11 02:06:04;;;;;;;31.40;18.92;;;;;;;-0.52;84.68;96440.09;4990416;28;20749;-77
2021/03/11 02:08:30;;;;;;;37.97;21.55;;;;;;;-0.46;84.06;96449.91;4991088;28;20055;-76
2021/03/11 02:10:57;;;;;;;42.20;23.33;;;;;;;-0.65;85.12;96440.13;4993592;28;20048;-76
2021/03/11 02:13:41;;;;;;;47.92;24.65;;;;;;;-0.73;85.72;96454.34;5003167;28;20050;-78
2021/03/11 02:16:18;;;;;;;50.13;25.40;;;;;;;-0.84;85.91;96439.72;5000944;28;20172;-76
2021/03/11 02:19:00;;;;;;;34.63;20.83;;;;;;;-1.07;85.63;96426.75;5000969;28;20124;-76
2021/03/11 02:21:41;;;;;;;34.55;20.35;;;;;;;-1.00;85.53;96434.81;4984168;28;20051;-77
2021/03/11 02:24:32;;;;;;;37.25;21.83;;;;;;;-1.00;86.37;96431.47;4990092;28;20054;-77
2021/03/11 02:27:39;;;;;;;34.13;19.85;;;;;;;-1.20;86.78;96431.06;4991033;28;20406;-78
2021/03/11 02:30:06;;;;;;;45.75;24.23;;;;;;;-1.35;86.27;96416.75;4986579;28;20048;-78
2021/03/11 02:32:33;;;;;;;40.70;21.85;;;;;;;-1.30;86.23;96415.50;4989892;28;20148;-79
2021/03/11 02:35:01;;;;;;;43.55;24.15;;;;;;;-1.29;86.31;96406.94;4977385;28;20705;-78
2021/03/11 02:37:41;;;;;;;37.58;19.83;;;;;;;-1.29;85.13;96396.72;5004748;28;20041;-78
2021/03/11 02:40:12;;;;;;;34.72;20.33;;;;;;;-1.23;85.57;96414.19;4992697;28;20042;-78
2021/03/11 02:42:40;;;;;;;33.92;21.08;;;;;;;-1.25;85.55;96390.50;4974620;28;20048;-78
2021/03/11 02:45:08;;;;;;;36.05;20.45;;;;;;;-1.25;85.49;96399.88;4984425;28;20056;-77
2021/03/11 02:47:36;;;;;;;37.83;20.98;;;;;;;-1.14;85.59;96405.09;4982341;28;20050;-76
2021/03/11 02:50:05;;;;;;;39.63;21.73;;;;;;;-1.13;85.59;96390.59;4998300;28;20512;-76
2021/03/11 02:52:32;;;;;;;47.30;24.92;;;;;;;-1.11;85.28;96401.53;4997316;28;20478;-76
2021/03/11 02:55:18;;;;;;;41.35;23.40;;;;;;;-1.05;86.12;96406.22;4988205;28;20033;-76
2021/03/11 02:57:46;;;;;;;44.85;23.10;;;;;;;-0.86;84.94;96395.56;5004968;28;20042;-76
2021/03/11 03:00:13;;;;;;;36.83;21.15;;;;;;;-1.05;85.22;96394.25;5000146;28;20052;-76
2021/03/11 03:02:43;;;;;;;44.78;25.10;;;;;;;-1.00;85.50;96395.69;4986628;28;20041;-76
2021/03/11 03:05:13;;;;;;;37.67;22.02;;;;;;;-1.08;86.16;96398.75;5003594;28;20498;-76
2021/03/11 03:07:44;;;;;;;51.55;27.30;;;;;;;-0.99;86.16;96394.78;4981089;28;20054;-77
2021/03/11 03:10:11;;;;;;;45.28;25.77;;;;;;;-0.84;85.64;96407.31;4972403;28;20049;-76
2021/03/11 03:12:38;;;;;;;43.67;23.42;;;;;;;-0.96;85.70;96400.47;4986424;28;20053;-78
2021/03/11 03:15:06;;;;;;;51.20;28.37;;;;;;;-0.86;85.95;96387.91;4972020;28;20045;-78
2021/03/11 03:17:33;;;;;;;55.28;27.88;;;;;;;-0.64;85.11;96374.44;4972487;28;20405;-77
2021/03/11 03:20:02;;;;;;;49.38;26.52;;;;;;;-0.65;85.76;96357.50;4991301;28;20419;-77
2021/03/11 03:22:29;;;;;;;49.35;27.85;;;;;;;-0.54;84.78;96355.00;4969353;28;20058;-77
2021/03/11 03:24:55;;;;;;;54.75;28.38;;;;;;;-0.66;85.49;96355.84;5004801;28;20044;-77
2021/03/11 03:27:22;;;;;;;44.80;25.75;;;;;;;-0.59;85.02;96340.88;4999083;28;20038;-77
2021/03/11 03:29:49;;;;;;;46.30;26.92;;;;;;;-0.37;85.03;96341.03;5003288;28;21179;-77
2021/03/11 03:32:16;;;;;;;41.13;24.20;;;;;;;-0.28;84.57;96340.34;5006566;28;20061;-78
2021/03/11 03:34:42;;;;;;;46.35;25.40;;;;;;;-0.50;85.04;96350.50;4982850;28;20536;-78
2021/03/11 03:37:08;;;;;;;50.75;27.08;;;;;;;-0.45;84.73;96338.19;5003211;28;20053;-78
2021/03/11 03:39:34;;;;;;;46.28;26.73;;;;;;;-0.48;85.15;96344.34;4992348;28;20056;-77
2021/03/11 03:42:01;;;;;;;44.25;25.67;;;;;;;-0.37;84.99;96345.31;4988318;28;20053;-77
2021/03/11 03:44:33;;;;;;;44.95;25.38;;;;;;;-0.33;85.08;96355.22;4975474;28;20054;-78
2021/03/11 03:47:05;;;;;;;42.33;23.80;;;;;;;-0.23;84.30;96340.84;4994017;28;20494;-79
2021/03/11 03:49:33;;;;;;;33.40;20.30;;;;;;;-0.09;83.74;96339.03;4989149;28;20097;-79
2021/03/11 03:52:02;;;;;;;43.90;24.65;;;;;;;-0.38;84.76;96352.19;4973700;28;20050;-78
2021/03/11 03:54:34;;;;;;;37.60;23.20;;;;;;;-0.31;84.69;96335.47;5005898;28;20040;-78
2021/03/11 03:57:04;;;;;;;37.83;22.90;;;;;;;-0.46;85.27;96349.34;4975046;28;20060;-78
2021/03/11 03:59:35;;;;;;;41.25;24.75;;;;;;;-0.39;85.33;96363.31;4989068;28;20084;-78
2021/03/11 04:02:04;;;;;;;43.25;24.20;;;;;;;-0.35;84.92;96349.41;5007630;28;20046;-77
2021/03/11 04:04:36;;;;;;;39.30;21.77;;;;;;;-0.31;85.04;96329.53;5008163;28;20088;-78
2021/03/11 04:07:06;;;;;;;41.88;24.63;;;;;;;-0.28;85.51;96314.78;4989637;28;20093;-77
2021/03/11 04:09:33;;;;;;;52.47;27.42;;;;;;;-0.58;86.58;96301.63;4974845;28;20054;-77
2021/03/11 04:11:59;;;;;;;40.17;22.00;;;;;;;-0.07;84.29;96296.25;4990252;28;20137;-78
2021/03/11 04:14:27;;;;;;;36.63;21.20;;;;;;;-0.18;84.17;96281.69;5003967;28;20501;-77
2021/03/11 04:16:54;;;;;;;44.90;25.70;;;;;;;-0.10;84.42;96304.16;4976019;28;20052;-78
2021/03/11 04:19:23;;;;;;;40.80;24.25;;;;;;;0.05;83.67;96320.13;4989240;28;20049;-78
2021/03/11 04:21:50;;;;;;;39.78;22.45;;;;;;;-0.10;84.24;96283.69;4979446;28;20038;-77
2021/03/11 04:24:17;;;;;;;36.85;20.80;;;;;;;0.09;82.90;96298.50;4988347;28;20046;-78
2021/03/11 04:26:44;;;;;;;33.17;19.17;;;;;;;0.11;83.95;96300.03;5007551;28;20046;-77
2021/03/11 04:29:11;;;;;;;35.63;21.77;;;;;;;0.14;83.53;96281.88;4984785;28;20160;-77
2021/03/11 04:31:39;;;;;;;40.05;22.52;;;;;;;-0.05;83.83;96279.03;5005702;28;20041;-77
2021/03/11 04:34:06;;;;;;;33.30;19.98;;;;;;;0.08;83.39;96281.50;4988479;28;20069;-77
2021/03/11 04:36:33;;;;;;;33.95;20.83;;;;;;;0.15;82.87;96268.16;5008545;28;20545;-77
2021/03/11 04:39:01;;;;;;;30.42;19.50;;;;;;;0.01;83.08;96281.16;4992636;28;20088;-78
2021/03/11 04:41:30;;;;;;;26.73;16.63;;;;;;;0.39;82.04;96262.13;4995863;28;20109;-78
2021/03/11 04:44:00;;;;;;;26.85;15.05;;;;;;;0.44;81.12;96249.78;4997845;28;20085;-78
2021/03/11 04:46:27;;;;;;;30.65;18.92;;;;;;;0.33;81.57;96245.47;4994625;28;20052;-78
2021/03/11 04:48:55;;;;;;;28.15;17.58;;;;;;;0.25;81.86;96234.19;4997179;28;20046;-78
2021/03/11 04:51:22;;;;;;;26.67;16.73;;;;;;;0.46;80.86;96216.38;4979398;28;20038;-79
2021/03/11 04:53:53;;;;;;;29.50;17.63;;;;;;;0.42;81.33;96238.84;4978998;28;20137;-78
2021/03/11 04:56:20;;;;;;;29.27;18.20;;;;;;;0.34;81.92;96238.59;4992595;28;20148;-79
2021/03/11 04:58:47;;;;;;;32.00;17.27;;;;;;;0.29;81.89;96248.38;4995974;28;20041;-79
2021/03/11 05:01:15;;;;;;;;;;;;;;;0.45;82.08;96242.94;5010654;28;20045;-78
2021/03/11 05:03:46;;;;;;;22.85;14.68;;;;;;;0.52;81.44;96206.47;4993457;28;19980;-77
2021/03/11 05:06:14;;;;;;;25.20;14.98;;;;;;;0.53;80.86;96191.91;4992401;28;20041;-78
2021/03/11 05:08:42;;;;;;;29.38;15.90;;;;;;;0.55;80.77;96203.69;4975133;28;20053;-75
2021/03/11 05:11:11;;;;;;;25.52;15.43;;;;;;;0.63;80.89;96213.34;4988097;28;20051;-77
2021/03/11 05:13:38;;;;;;;29.63;18.05;;;;;;;0.50;81.63;96208.34;5010260;28;20100;-76
2021/03/11 05:16:05;;;;;;;30.48;16.40;;;;;;;0.45;82.32;96220.69;5007668;28;20141;-76
2021/03/11 05:18:32;;;;;;;24.60;15.20;;;;;;;0.41;82.36;96191.13;5006756;28;20113;-76
2021/03/11 05:20:58;;;;;;;18.63;12.07;;;;;;;0.72;80.54;96181.06;4991780;28;20042;-77
2021/03/11 05:23:24;;;;;;;22.33;14.02;;;;;;;0.68;80.62;96180.50;4993056;28;20056;-76
2021/03/11 05:25:55;;;;;;;22.48;14.65;;;;;;;0.70;80.44;96196.56;5002388;28;20046;-76
2021/03/11 05:28:22;;;;;;;24.25;14.88;;;;;;;0.72;81.09;96168.25;4975200;28;20046;-77
2021/03/11 05:30:48;;;;;;;24.17;13.67;;;;;;;0.74;79.63;96151.00;4993866;28;20525;-75
2021/03/11 05:33:14;;;;;;;21.48;12.80;;;;;;;0.78;79.44;96180.59;4988889;28;20054;-76
2021/03/11 05:35:41;;;;;;;25.02;14.35;;;;;;;0.53;80.28;96171.44;4973891;28;20131;-76
2021/03/11 05:38:09;;;;;;;23.30;14.00;;;;;;;0.58;81.31;96169.34;5007556;28;20635;-76
2021/03/11 05:40:36;;;;;;;19.23;11.95;;;;;;;0.90;79.47;96164.25;4993521;28;20053;-76
2021/03/11 05:43:05;;;;;;;20.30;12.40;;;;;;;0.89;79.03;96159.25;4987024;28;20497;-76
2021/03/11 05:45:34;;;;;;;17.90;12.13;;;;;;;1.08;78.72;96148.34;5007817;28;20060;-75
2021/03/11 05:48:01;;;;;;;19.88;12.55;;;;;;;0.90;78.74;96148.06;5005690;28;20077;-75
2021/03/11 05:50:28;;;;;;;19.25;11.65;;;;;;;1.14;78.05;96158.94;5006217;28;20059;-74
2021/03/11 05:52:57;;;;;;;19.35;12.13;;;;;;;0.88;79.52;96149.94;5008077;28;20042;-74
2021/03/11 05:55:25;;;;;;;23.73;13.00;;;;;;;0.91;79.64;96155.66;5002044;28;20120;-75
2021/03/11 05:57:51;;;;;;;;;;;;;;;0.95;79.77;96146.78;4988382;28;20129;-76
2021/03/11 06:00:20;;;;;;;21.10;12.18;;;;;;;1.06;79.30;96138.25;5006677;28;19921;-75
2021/03/11 06:02:54;;;;;;;22.08;12.75;;;;;;;1.06;79.05;96127.16;5006769;28;20141;-74
2021/03/11 06:05:21;;;;;;;25.48;12.23;;;;;;;0.97;79.79;96136.38;4985916;28;20546;-75
2021/03/11 06:07:49;;;;;;;19.50;11.68;;;;;;;1.32;77.90;96127.63;4987407;28;20100;-75
2021/03/11 06:10:17;;;;;;;16.38;11.10;;;;;;;1.28;78.36;96142.44;4989184;28;20082;-75
2021/03/11 06:12:44;;;;;;;18.88;12.02;;;;;;;1.12;78.83;96136.91;5003576;28;20064;-75
2021/03/11 06:15:14;;;;;;;18.30;11.52;;;;;;;1.07;78.61;96126.22;5006132;28;20057;-75
2021/03/11 06:17:40;;;;;;;18.65;11.68;;;;;;;1.27;78.28;96130.56;5003466;28;20057;-76
2021/03/11 06:20:08;;;;;;;18.85;12.23;;;;;;;1.21;77.94;96128.50;5007095;28;20510;-76
2021/03/11 06:22:36;;;;;;;29.45;12.70;;;;;;;1.25;77.36;96122.19;4986816;28;20074;-76
2021/03/11 06:25:03;;;;;;;23.75;13.07;;;;;;;1.34;76.40;96110.38;5005823;28;20060;-76
2021/03/11 06:27:30;;;;;;;20.50;14.02;;;;;;;0.81;81.91;96129.13;5006248;28;20116;-76
2021/03/11 06:29:59;;;;;;;22.95;15.23;;;;;;;1.07;81.34;96139.03;4991830;28;20057;-75
2021/03/11 06:32:27;;;;;;;23.95;15.93;;;;;;;1.04;80.13;96139.28;5005621;28;20037;-76
2021/03/11 06:34:55;;;;;;;44.50;26.33;;;;;;;0.78;80.91;96131.91;4987540;28;20072;-77
2021/03/11 06:37:36;;;;;;;28.73;17.40;;;;;;;0.95;81.46;96136.53;4974121;28;20058;-75
2021/03/11 06:40:32;;;;;;;38.40;23.63;;;;;;;1.47;79.85;96153.78;5004458;28;20034;-76
2021/03/11 06:43:13;;;;;;;28.60;15.45;;;;;;;1.78;78.50;96132.38;4978830;28;20062;-75
2021/03/11 06:45:41;;;;;;;24.48;14.90;;;;;;;1.79;77.76;96146.81;5006441;28;20068;-76
2021/03/11 06:48:21;;;;;;;26.48;16.15;;;;;;;1.82;77.34;96153.44;4975907;28;20057;-76
2021/03/11 06:50:47;;;;;;;34.60;22.17;;;;;;;2.06;76.18;96157.50;5002525;28;20046;-77
2021/03/11 06:53:13;;;;;;;33.65;21.63;;;;;;;2.03;76.37;96148.28;4972391;28;20074;-75
2021/03/11 06:55:39;;;;;;;28.10;18.75;;;;;;;2.17;74.83;96165.13;5006252;28;20398;-75
2021/03/11 06:58:25;;;;;;;32.83;19.30;;;;;;;2.33;74.60;96151.78;5005996;28;20061;-74
2021/03/11 07:01:08;;;;;;;37.88;19.30;;;;;;;2.32;76.07;96188.69;4987391;28;20061;-75
2021/03/11 07:03:38;;;;;;;28.20;17.25;;;;;;;2.74;74.75;96173.16;5005009;28;20081;-75
2021/03/11 07:06:05;;;;;;;30.73;18.02;;;;;;;1.95;76.98;96194.34;5006557;28;20061;-75
2021/03/11 07:08:32;;;;;;;27.92;18.17;;;;;;;2.13;77.52;96200.50;4987657;28;20096;-75
2021/03/11 07:11:06;;;;;;;28.27;18.40;;;;;;;2.19;76.76;96184.56;4987396;28;20061;-75
2021/03/11 07:13:40;;;;;;;26.02;16.70;;;;;;;2.33;76.94;96209.13;5001392;28;20132;-76
2021/03/11 07:16:17;;;;;;;30.15;18.55;;;;;;;2.21;77.57;96200.66;4983209;28;20045;-75
2021/03/11 07:18:44;;;;;;;31.10;19.10;;;;;;;1.98;77.94;96199.19;5001346;28;20133;-75
2021/03/11 07:21:11;;;;;;;28.92;17.88;;;;;;;2.06;77.83;96189.13;4987251;28;20046;-76
2021/03/11 07:23:48;;;;;;;28.67;15.95;;;;;;;2.24;78.04;96212.44;5007956;28;20423;-76
2021/03/11 07:26:17;;;;;;;24.25;16.27;;;;;;;1.92;78.05;96218.47;5005465;28;20050;-76
2021/03/11 07:29:15;;;;;;;26.45;15.68;;;;;;;2.68;75.04;96194.22;4997437;28;20037;-75
2021/03/11 07:31:41;;;;;;;34.60;18.13;;;;;;;2.87;74.99;96199.41;4971940;28;20070;-76
2021/03/11 07:34:10;;;;;;;25.73;16.50;;;;;;;2.95;75.93;96185.91;4988182;28;20133;-76
2021/03/11 07:36:36;;;;;;;24.50;14.63;;;;;;;3.04;73.65;96190.25;4986068;28;20120;-77
2021/03/11 07:39:07;;;;;;;27.83;16.55;;;;;;;2.90;75.20;96159.75;4973935;28;20059;-76
2021/03/11 07:41:33;;;;;;;25.10;15.73;;;;;;;3.18;73.33;96148.69;4978134;28;20053;-76
2021/03/11 07:44:00;;;;;;;24.90;14.35;;;;;;;3.09;73.35;96143.53;5004788;28;20177;-75
2021/03/11 07:46:26;;;;;;;20.05;13.10;;;;;;;3.12;73.02;96153.56;4985343;28;20505;-75
2021/03/11 07:48:53;;;;;;;27.27;13.90;;;;;;;3.30;73.53;96162.22;5006444;28;20038;-75
2021/03/11 07:51:19;;;;;;;20.35;12.18;;;;;;;2.98;73.39;96165.84;4989612;28;20394;-76
2021/03/11 07:53:46;;;;;;;15.00;10.57;;;;;;;3.23;72.44;96171.44;4969358;28;20373;-76
2021/03/11 07:56:12;;;;;;;18.83;11.63;;;;;;;3.53;71.78;96159.38;4995500;28;20044;-76
2021/03/11 07:58:42;;;;;;;17.23;10.73;;;;;;;3.50;72.19;96151.94;4984892;28;20050;-76
2021/03/11 08:01:10;;;;;;;17.75;11.68;;;;;;;3.01;73.04;96163.03;4970716;28;20441;-75
2021/03/11 08:03:39;;;;;;;15.40;10.82;;;;;;;3.19;72.41;96137.44;4986957;28;20034;-76
2021/03/11 08:06:20;;;;;;;21.67;11.88;;;;;;;3.57;72.03;96127.25;5000619;28;20042;-75
2021/03/11 08:08:47;;;;;;;18.23;9.60;;;;;;;3.73;69.91;96124.94;5004009;28;20050;-75
2021/03/11 08:11:40;;;;;;;16.70;11.32;;;;;;;3.76;72.17;96154.72;5003429;28;20370;-77
2021/03/11 08:14:25;;;;;;;9.95;7.03;;;;;;;3.60;67.08;96166.41;5000683;28;20052;-76
2021/03/11 08:16:53;;;;;;;8.43;5.60;;;;;;;4.09;65.20;96143.13;4984074;28;20054;-75
2021/03/11 08:19:35;;;;;;;12.40;8.00;;;;;;;3.55;67.28;96175.50;5001508;28;20077;-75
2021/03/11 08:22:04;;;;;;;19.23;9.00;;;;;;;3.45;69.01;96168.59;5003265;28;20042;-75
2021/03/11 08:24:46;;;;;;;12.43;7.75;;;;;;;3.80;66.56;96162.03;4991850;28;20074;-75
2021/03/11 08:27:32;;;;;;;12.00;6.82;;;;;;;3.85;65.24;96153.88;5004195;28;20044;-75
2021/03/11 08:29:59;;;;;;;16.77;9.52;;;;;;;4.01;65.88;96153.31;4994446;28;20052;-75
2021/03/11 08:32:51;;;;;;;13.07;7.63;;;;;;;3.92;65.79;96154.19;4990809;28;20049;-75
2021/03/11 08:35:26;;;;;;;10.88;6.65;;;;;;;3.98;65.82;96140.72;5007925;28;20045;-75
2021/03/11 08:37:54;;;;;;;13.98;6.45;;;;;;;3.96;64.72;96140.88;5006775;28;20069;-75
2021/03/11 08:40:34;;;;;;;9.70;6.45;;;;;;;3.94;65.24;96135.03;4991743;28;20049;-74
2021/03/11 08:43:00;;;;;;;11.32;6.75;;;;;;;4.00;64.42;96116.47;5005825;28;20073;-75
2021/03/11 08:48:20;;;;;;;15.68;6.47;;;;;;;4.45;62.59;96110.56;5006396;28;20117;-75
2021/03/11 08:50:48;;;;;;;12.63;6.90;;;;;;;4.46;62.80;96104.44;5007498;28;20037;-76
2021/03/11 08:53:33;;;;;;;;;;;;;;;4.52;62.80;96084.22;4995178;28;20050;-75
2021/03/11 08:56:00;;;;;;;10.50;5.85;;;;;;;4.74;61.87;96068.34;5007931;28;19921;-75
2021/03/11 08:58:27;;;;;;;13.60;7.93;;;;;;;4.63;61.43;96077.06;4986305;28;21355;-74
2021/03/11 09:01:02;;;;;;;15.55;8.25;;;;;;;4.83;61.46;96064.84;4988733;28;20037;-75
2021/03/11 09:03:48;;;;;;;13.68;6.50;;;;;;;4.71;63.05;96058.28;5005666;28;20546;-76
2021/03/11 09:06:15;;;;;;;14.63;7.25;;;;;;;5.09;60.87;96077.81;5005038;28;20480;-77
2021/03/11 09:08:47;;;;;;;11.68;6.32;;;;;;;5.23;61.44;96073.91;5005003;28;20556;-74
2021/03/11 09:11:20;;;;;;;8.50;5.97;;;;;;;4.88;61.08;96070.38;4989401;28;20042;-74
2021/03/11 09:13:49;;;;;;;9.55;5.78;;;;;;;4.99;61.10;96077.06;4987457;28;20124;-74
2021/03/11 09:16:22;;;;;;;10.13;6.80;;;;;;;5.05;61.47;96071.31;4989510;28;20077;-75
2021/03/11 09:18:54;;;;;;;9.82;6.00;;;;;;;5.90;60.71;96086.25;4991754;28;20033;-75
2021/03/11 09:21:20;;;;;;;9.50;5.78;;;;;;;5.16;61.19;96077.22;5007551;28;20042;-75
2021/03/11 09:23:46;;;;;;;7.82;5.00;;;;;;;5.41;60.53;96070.47;4988203;28;20050;-76
2021/03/11 09:26:42;;;;;;;9.52;6.03;;;;;;;5.67;60.87;96070.47;4989433;28;20053;-76
2021/03/11 09:29:08;;;;;;;8.10;5.47;;;;;;;5.84;60.24;96064.44;4977822;28;20085;-76
2021/03/11 09:31:35;;;;;;;9.33;5.13;;;;;;;5.97;59.38;96070.97;5008391;28;20133;-75
2021/03/11 09:34:03;;;;;;;10.38;5.47;;;;;;;5.77;58.81;96050.50;5004090;28;20038;-76
2021/03/11 09:36:29;;;;;;;11.65;6.50;;;;;;;6.23;58.51;96045.09;5005438;28;20129;-77
2021/03/11 09:39:06;;;;;;;7.97;5.30;;;;;;;6.37;58.31;96041.91;5003093;28;20427;-75
2021/03/11 09:41:33;;;;;;;8.70;5.40;;;;;;;6.48;57.70;96043.41;4988731;28;20044;-76
2021/03/11 09:44:06;;;;;;;6.82;4.93;;;;;;;6.39;56.44;95998.63;4984582;28;20050;-76
2021/03/11 09:46:33;;;;;;;7.25;4.30;;;;;;;6.87;55.30;96024.69;4986203;28;20065;-77
2021/03/11 09:49:00;;;;;;;8.35;4.05;;;;;;;7.04;53.83;96023.72;4990614;28;20046;-76
2021/03/11 09:51:28;;;;;;;7.97;4.30;;;;;;;7.59;54.37;96031.75;5006175;28;20046;-75
2021/03/11 09:53:57;;;;;;;9.57;4.57;;;;;;;7.11;53.88;96029.88;5007000;28;20042;-75
2021/03/11 09:56:25;;;;;;;6.63;4.38;;;;;;;7.20;52.47;96017.72;5008187;28;20121;-75
2021/03/11 09:58:53;;;;;;;5.97;4.15;;;;;;;7.74;51.95;96012.75;4990077;28;20699;-76
2021/03/11 10:01:30;;;;;;;5.38;4.20;;;;;;;8.08;52.40;96006.47;4974912;28;20125;-75
2021/03/11 10:03:58;;;;;;;5.68;4.13;;;;;;;8.18;52.14;95998.50;4973978;28;20046;-75
2021/03/11 10:06:26;;;;;;;7.60;4.10;;;;;;;8.66;50.81;96004.41;4988434;28;20411;-75
2021/03/11 10:08:57;;;;;;;5.13;3.70;;;;;;;8.41;51.20;96003.75;4990506;28;20065;-75
2021/03/11 10:11:33;;;;;;;5.25;3.75;;;;;;;8.89;50.47;95988.00;4989868;28;20042;-75
2021/03/11 10:14:03;;;;;;;5.60;3.92;;;;;;;8.46;50.74;95982.50;4975664;28;20053;-76
2021/03/11 10:16:33;;;;;;;5.65;4.00;;;;;;;8.21;52.25;95986.97;5001258;28;20049;-76
2021/03/11 10:19:05;;;;;;;6.38;4.25;;;;;;;7.88;52.89;95974.97;4988313;28;20112;-76
2021/03/11 10:21:44;;;;;;;5.78;3.65;;;;;;;8.40;52.13;95983.94;4967406;28;20057;-76
2021/03/11 10:24:11;;;;;;;7.70;4.40;;;;;;;8.17;52.35;95976.16;5002743;28;20043;-75
2021/03/11 10:26:37;;;;;;;8.75;4.25;;;;;;;8.24;52.60;95968.50;5005358;28;20050;-76
2021/03/11 10:29:09;;;;;;;6.53;4.60;;;;;;;8.39;51.69;95966.78;5003908;28;20077;-76
2021/03/11 10:31:35;;;;;;;8.30;4.63;;;;;;;8.61;51.75;95967.78;5003321;28;20050;-76
2021/03/11 10:34:05;;;;;;;12.13;5.55;;;;;;;8.32;52.03;95971.84;4988729;28;20094;-76
2021/03/11 10:36:32;;;;;;;10.73;5.82;;;;;;;8.65;52.80;95961.28;4985879;28;20046;-75
2021/03/11 10:39:11;;;;;;;8.40;5.07;;;;;;;8.60;52.16;95957.59;5004358;28;20058;-77
2021/03/11 10:42:01;;;;;;;12.20;5.20;;;;;;;9.00;51.38;95956.47;4987404;28;20052;-76
2021/03/11 10:44:33;;;;;;;11.02;5.40;;;;;;;8.84;51.89;95954.00;4990762;28;20403;-75
2021/03/11 10:47:14;;;;;;;10.73;4.90;;;;;;;8.60;52.08;95942.84;4988461;28;20791;-76
2021/03/11 10:49:42;;;;;;;8.40;4.80;;;;;;;8.35;53.30;95945.56;4990032;28;20046;-76
2021/03/11 10:52:11;;;;;;;8.05;4.70;;;;;;;8.35;54.32;95935.19;5007105;28;20041;-70
2021/03/11 10:54:39;;;;;;;8.77;4.63;;;;;;;8.77;52.87;95933.13;4998392;28;20057;-71
2021/03/11 10:57:13;;;;;;;7.63;4.68;;;;;;;8.36;53.97;95934.22;4998965;28;20113;-72
2021/03/11 10:59:53;;;;;;;8.85;4.25;;;;;;;8.90;51.81;95935.13;4986744;28;20053;-76
2021/03/11 11:02:21;;;;;;;6.38;4.00;;;;;;;9.49;50.77;95947.38;5003078;28;20042;-76
2021/03/11 11:04:48;;;;;;;11.10;4.50;;;;;;;9.25;50.42;95936.28;4992788;28;20065;-77
2021/03/11 11:07:16;;;;;;;11.05;5.35;;;;;;;9.55;51.05;95918.91;5002073;28;20100;-77
2021/03/11 11:09:43;;;;;;;7.63;3.95;;;;;;;9.90;50.19;95911.31;4982939;28;20068;-76
2021/03/11 11:12:14;;;;;;;6.00;4.60;;;;;;;10.31;48.93;95897.78;4989360;28;20073;-76
2021/03/11 11:14:40;;;;;;;9.38;4.22;;;;;;;10.51;48.74;95884.13;4987142;28;20050;-76
2021/03/11 11:17:07;;;;;;;14.77;9.10;;;;;;;11.41;46.22;95861.72;5003063;28;20133;-78
2021/03/11 11:19:33;;;;;;;7.37;3.53;;;;;;;11.38;46.38;95877.72;4990832;28;20115;-78
2021/03/11 11:22:00;;;;;;;6.88;4.15;;;;;;;12.33;44.93;95873.44;5008897;28;20037;-78
2021/03/11 11:24:28;;;;;;;8.93;5.43;;;;;;;12.75;43.31;95860.22;4991184;28;21569;-78
2021/03/11 11:26:57;;;;;;;5.78;3.75;;;;;;;12.63;44.76;95873.06;5006955;28;20046;-78
2021/03/11 11:29:25;;;;;;;6.77;3.90;;;;;;;11.97;45.69;95866.75;5002602;28;20656;-75
2021/03/11 11:31:53;;;;;;;4.60;3.35;;;;;;;13.00;43.76;95850.75;5001233;28;20114;-76
2021/03/11 11:34:20;;;;;;;4.95;4.45;;;;;;;16.32;37.48;95848.38;5000263;28;20046;-76
2021/03/11 11:36:47;;;;;;;7.18;4.30;;;;;;;15.07;39.14;95852.28;4977425;28;20048;-77
2021/03/11 11:39:14;;;;;;;5.63;3.63;;;;;;;14.25;41.91;95854.94;4985963;28;20085;-76
2021/03/11 11:41:41;;;;;;;7.95;3.88;;;;;;;13.94;42.11;95853.88;4984774;28;20038;-76